sensor_id;sensor_type;location;lat;lon;timestamp;temperature;humidity
12164;DHT22;6145;50.192;10.064;2022-12-07T00:00:51;3.80;97.10
12164;DHT22;6145;50.192;10.064;2022-12-07T00:03:18;3.70;97.00
12164;DHT22;6145;50.192;10.064;2022-12-07T00:05:46;3.70;97.00
12164;DHT22;6145;50.192;10.064;2022-12-07T00:08:13;3.80;96.90
12164;DHT22;6145;50.192;10.064;2022-12-07T00:10:40;3.70;96.90
12164;DHT22;6145;50.192;10.064;2022-12-07T00:13:07;3.80;97.00
12164;DHT22;6145;50.192;10.064;2022-12-07T00:15:34;3.70;96.60
12164;DHT22;6145;50.192;10.064;2022-12-07T00:18:01;3.70;96.60
12164;DHT22;6145;50.192;10.064;2022-12-07T00:20:28;3.70;96.60
12164;DHT22;6145;50.192;10.064;2022-12-07T00:22:57;3.70;96.60
12164;DHT22;6145;50.192;10.064;2022-12-07T00:25:23;3.60;96.30
12164;DHT22;6145;50.192;10.064;2022-12-07T00:27:52;3.50;96.40
12164;DHT22;6145;50.192;10.064;2022-12-07T00:30:19;3.50;96.60
12164;DHT22;6145;50.192;10.064;2022-12-07T00:32:45;3.50;96.70
12164;DHT22;6145;50.192;10.064;2022-12-07T00:35:13;3.50;96.50
12164;DHT22;6145;50.192;10.064;2022-12-07T00:37:40;3.50;96.40
12164;DHT22;6145;50.192;10.064;2022-12-07T00:40:09;3.50;96.40
12164;DHT22;6145;50.192;10.064;2022-12-07T00:42:36;3.50;96.30
12164;DHT22;6145;50.192;10.064;2022-12-07T00:45:03;3.40;96.20
12164;DHT22;6145;50.192;10.064;2022-12-07T00:47:30;3.40;96.10
12164;DHT22;6145;50.192;10.064;2022-12-07T00:49:56;3.40;96.20
12164;DHT22;6145;50.192;10.064;2022-12-07T00:52:23;3.20;96.20
12164;DHT22;6145;50.192;10.064;2022-12-07T00:54:50;3.20;96.40
12164;DHT22;6145;50.192;10.064;2022-12-07T00:57:19;3.10;96.60
12164;DHT22;6145;50.192;10.064;2022-12-07T00:59:45;3.10;96.80
12164;DHT22;6145;50.192;10.064;2022-12-07T01:02:13;3.10;96.80
12164;DHT22;6145;50.192;10.064;2022-12-07T01:04:39;3.10;97.00
12164;DHT22;6145;50.192;10.064;2022-12-07T01:07:06;3.20;97.20
12164;DHT22;6145;50.192;10.064;2022-12-07T01:09:33;3.20;97.00
12164;DHT22;6145;50.192;10.064;2022-12-07T01:12:01;3.20;97.00
12164;DHT22;6145;50.192;10.064;2022-12-07T01:14:29;3.20;97.10
12164;DHT22;6145;50.192;10.064;2022-12-07T01:16:56;3.20;97.00
12164;DHT22;6145;50.192;10.064;2022-12-07T01:19:23;3.20;96.80
12164;DHT22;6145;50.192;10.064;2022-12-07T01:21:50;3.20;97.00
12164;DHT22;6145;50.192;10.064;2022-12-07T01:24:16;4.60;97.50
12164;DHT22;6145;50.192;10.064;2022-12-07T01:26:43;3.20;96.90
12164;DHT22;6145;50.192;10.064;2022-12-07T01:29:10;3.20;96.90
12164;DHT22;6145;50.192;10.064;2022-12-07T01:31:38;3.30;97.00
12164;DHT22;6145;50.192;10.064;2022-12-07T01:34:05;3.20;97.00
12164;DHT22;6145;50.192;10.064;2022-12-07T01:36:34;3.30;97.00
12164;DHT22;6145;50.192;10.064;2022-12-07T01:39:03;4.00;97.20
12164;DHT22;6145;50.192;10.064;2022-12-07T01:41:33;3.10;96.80
12164;DHT22;6145;50.192;10.064;2022-12-07T01:47:00;3.20;97.00
12164;DHT22;6145;50.192;10.064;2022-12-07T01:49:30;3.20;96.80
12164;DHT22;6145;50.192;10.064;2022-12-07T01:52:12;3.20;97.00
12164;DHT22;6145;50.192;10.064;2022-12-07T01:54:40;3.20;97.00
12164;DHT22;6145;50.192;10.064;2022-12-07T01:57:08;3.20;97.00
12164;DHT22;6145;50.192;10.064;2022-12-07T01:59:35;3.20;97.00
12164;DHT22;6145;50.192;10.064;2022-12-07T02:02:09;3.20;97.10
12164;DHT22;6145;50.192;10.064;2022-12-07T02:04:36;3.20;97.10
12164;DHT22;6145;50.192;10.064;2022-12-07T02:07:04;3.20;97.20
12164;DHT22;6145;50.192;10.064;2022-12-07T02:09:31;3.20;97.20
12164;DHT22;6145;50.192;10.064;2022-12-07T02:11:58;3.20;97.10
12164;DHT22;6145;50.192;10.064;2022-12-07T02:14:25;3.20;97.20
12164;DHT22;6145;50.192;10.064;2022-12-07T02:17:01;3.20;97.20
12164;DHT22;6145;50.192;10.064;2022-12-07T02:20:12;3.20;97.20
12164;DHT22;6145;50.192;10.064;2022-12-07T02:23:07;3.20;97.10
12164;DHT22;6145;50.192;10.064;2022-12-07T02:25:54;3.20;97.20
12164;DHT22;6145;50.192;10.064;2022-12-07T02:28:29;3.20;97.20
12164;DHT22;6145;50.192;10.064;2022-12-07T02:31:03;3.20;97.20
12164;DHT22;6145;50.192;10.064;2022-12-07T02:33:35;3.20;97.30
12164;DHT22;6145;50.192;10.064;2022-12-07T02:36:06;3.20;97.30
12164;DHT22;6145;50.192;10.064;2022-12-07T02:38:38;3.20;97.30
12164;DHT22;6145;50.192;10.064;2022-12-07T02:41:12;3.20;97.40
12164;DHT22;6145;50.192;10.064;2022-12-07T02:43:43;3.20;97.40
12164;DHT22;6145;50.192;10.064;2022-12-07T02:46:15;3.20;97.30
12164;DHT22;6145;50.192;10.064;2022-12-07T02:48:44;3.20;97.40
12164;DHT22;6145;50.192;10.064;2022-12-07T02:51:12;3.20;97.40
12164;DHT22;6145;50.192;10.064;2022-12-07T02:53:40;3.20;97.40
12164;DHT22;6145;50.192;10.064;2022-12-07T02:56:13;3.20;97.40
12164;DHT22;6145;50.192;10.064;2022-12-07T02:58:53;3.70;97.70
12164;DHT22;6145;50.192;10.064;2022-12-07T03:01:30;3.20;97.50
12164;DHT22;6145;50.192;10.064;2022-12-07T03:04:09;3.20;97.60
12164;DHT22;6145;50.192;10.064;2022-12-07T03:06:43;3.30;97.60
12164;DHT22;6145;50.192;10.064;2022-12-07T03:09:15;3.40;97.60
12164;DHT22;6145;50.192;10.064;2022-12-07T03:11:49;3.30;97.60
12164;DHT22;6145;50.192;10.064;2022-12-07T03:14:19;3.30;97.60
12164;DHT22;6145;50.192;10.064;2022-12-07T03:16:53;3.20;97.60
12164;DHT22;6145;50.192;10.064;2022-12-07T03:19:23;3.20;97.60
12164;DHT22;6145;50.192;10.064;2022-12-07T03:21:54;3.20;97.60
12164;DHT22;6145;50.192;10.064;2022-12-07T03:24:27;3.20;97.70
12164;DHT22;6145;50.192;10.064;2022-12-07T03:26:59;3.20;97.70
12164;DHT22;6145;50.192;10.064;2022-12-07T03:29:30;3.20;97.70
12164;DHT22;6145;50.192;10.064;2022-12-07T03:32:04;3.20;97.80
12164;DHT22;6145;50.192;10.064;2022-12-07T03:34:35;3.20;97.80
12164;DHT22;6145;50.192;10.064;2022-12-07T03:37:05;3.20;97.80
12164;DHT22;6145;50.192;10.064;2022-12-07T03:39:36;3.20;97.80
12164;DHT22;6145;50.192;10.064;2022-12-07T03:42:06;3.20;97.80
12164;DHT22;6145;50.192;10.064;2022-12-07T03:44:35;3.20;97.80
12164;DHT22;6145;50.192;10.064;2022-12-07T03:47:06;3.20;97.90
12164;DHT22;6145;50.192;10.064;2022-12-07T03:49:41;3.20;97.90
12164;DHT22;6145;50.192;10.064;2022-12-07T03:52:15;3.20;98.00
12164;DHT22;6145;50.192;10.064;2022-12-07T03:54:48;3.20;97.90
12164;DHT22;6145;50.192;10.064;2022-12-07T03:57:18;3.70;98.20
12164;DHT22;6145;50.192;10.064;2022-12-07T03:59:46;3.20;98.00
12164;DHT22;6145;50.192;10.064;2022-12-07T04:02:16;3.30;98.00
12164;DHT22;6145;50.192;10.064;2022-12-07T04:04:43;3.20;98.00
12164;DHT22;6145;50.192;10.064;2022-12-07T04:07:10;3.40;98.00
12164;DHT22;6145;50.192;10.064;2022-12-07T04:09:38;3.30;98.00
12164;DHT22;6145;50.192;10.064;2022-12-07T04:12:06;3.30;97.90
12164;DHT22;6145;50.192;10.064;2022-12-07T04:14:33;3.30;98.00
12164;DHT22;6145;50.192;10.064;2022-12-07T04:17:00;3.20;98.00
12164;DHT22;6145;50.192;10.064;2022-12-07T04:19:29;3.30;98.10
12164;DHT22;6145;50.192;10.064;2022-12-07T04:21:57;3.30;98.10
12164;DHT22;6145;50.192;10.064;2022-12-07T04:24:24;3.30;98.10
12164;DHT22;6145;50.192;10.064;2022-12-07T04:26:51;3.30;98.10
12164;DHT22;6145;50.192;10.064;2022-12-07T04:29:19;3.30;98.00
12164;DHT22;6145;50.192;10.064;2022-12-07T04:31:46;3.30;98.10
12164;DHT22;6145;50.192;10.064;2022-12-07T04:34:13;4.60;98.70
12164;DHT22;6145;50.192;10.064;2022-12-07T04:36:42;3.40;98.20
12164;DHT22;6145;50.192;10.064;2022-12-07T04:39:18;3.40;98.20
12164;DHT22;6145;50.192;10.064;2022-12-07T04:41:46;3.70;98.30
12164;DHT22;6145;50.192;10.064;2022-12-07T04:44:13;3.40;98.20
12164;DHT22;6145;50.192;10.064;2022-12-07T04:46:40;3.40;98.20
12164;DHT22;6145;50.192;10.064;2022-12-07T04:49:07;4.60;98.70
12164;DHT22;6145;50.192;10.064;2022-12-07T04:51:34;3.40;98.20
12164;DHT22;6145;50.192;10.064;2022-12-07T04:54:03;3.40;98.10
12164;DHT22;6145;50.192;10.064;2022-12-07T04:56:30;4.00;98.40
12164;DHT22;6145;50.192;10.064;2022-12-07T04:58:58;3.40;98.10
12164;DHT22;6145;50.192;10.064;2022-12-07T05:01:24;4.20;98.50
12164;DHT22;6145;50.192;10.064;2022-12-07T05:03:51;3.40;98.10
12164;DHT22;6145;50.192;10.064;2022-12-07T05:06:18;3.40;98.10
12164;DHT22;6145;50.192;10.064;2022-12-07T05:08:46;3.40;98.10
12164;DHT22;6145;50.192;10.064;2022-12-07T05:11:14;3.40;98.20
12164;DHT22;6145;50.192;10.064;2022-12-07T05:13:55;3.40;98.20
12164;DHT22;6145;50.192;10.064;2022-12-07T05:16:22;4.20;98.50
12164;DHT22;6145;50.192;10.064;2022-12-07T05:18:49;3.40;98.10
12164;DHT22;6145;50.192;10.064;2022-12-07T05:21:16;3.60;98.10
12164;DHT22;6145;50.192;10.064;2022-12-07T05:23:43;3.50;98.00
12164;DHT22;6145;50.192;10.064;2022-12-07T05:26:10;3.50;98.10
12164;DHT22;6145;50.192;10.064;2022-12-07T05:28:38;3.40;98.10
12164;DHT22;6145;50.192;10.064;2022-12-07T05:31:05;3.40;98.10
12164;DHT22;6145;50.192;10.064;2022-12-07T05:33:32;3.40;98.20
12164;DHT22;6145;50.192;10.064;2022-12-07T05:35:59;3.40;98.20
12164;DHT22;6145;50.192;10.064;2022-12-07T05:38:30;3.40;98.20
12164;DHT22;6145;50.192;10.064;2022-12-07T05:41:00;3.40;98.30
12164;DHT22;6145;50.192;10.064;2022-12-07T05:43:28;3.40;98.30
12164;DHT22;6145;50.192;10.064;2022-12-07T05:45:56;3.40;98.30
12164;DHT22;6145;50.192;10.064;2022-12-07T05:48:23;3.40;98.30
12164;DHT22;6145;50.192;10.064;2022-12-07T05:50:50;3.40;98.40
12164;DHT22;6145;50.192;10.064;2022-12-07T05:53:17;3.40;98.40
12164;DHT22;6145;50.192;10.064;2022-12-07T05:55:44;3.40;98.40
12164;DHT22;6145;50.192;10.064;2022-12-07T05:58:11;3.40;98.30
12164;DHT22;6145;50.192;10.064;2022-12-07T06:00:57;3.40;98.40
12164;DHT22;6145;50.192;10.064;2022-12-07T06:03:23;3.40;98.40
12164;DHT22;6145;50.192;10.064;2022-12-07T06:05:52;3.40;98.40
12164;DHT22;6145;50.192;10.064;2022-12-07T06:08:19;3.40;98.50
12164;DHT22;6145;50.192;10.064;2022-12-07T06:10:47;3.50;98.50
12164;DHT22;6145;50.192;10.064;2022-12-07T06:13:35;5.00;99.10
12164;DHT22;6145;50.192;10.064;2022-12-07T06:16:02;3.40;98.40
12164;DHT22;6145;50.192;10.064;2022-12-07T06:18:29;3.40;98.40
12164;DHT22;6145;50.192;10.064;2022-12-07T06:20:56;3.60;98.50
12164;DHT22;6145;50.192;10.064;2022-12-07T06:23:22;3.50;98.40
12164;DHT22;6145;50.192;10.064;2022-12-07T06:25:49;3.50;98.30
12164;DHT22;6145;50.192;10.064;2022-12-07T06:28:16;3.50;98.40
12164;DHT22;6145;50.192;10.064;2022-12-07T06:30:43;3.50;98.30
12164;DHT22;6145;50.192;10.064;2022-12-07T06:33:11;3.50;98.20
12164;DHT22;6145;50.192;10.064;2022-12-07T06:35:38;3.50;98.30
12164;DHT22;6145;50.192;10.064;2022-12-07T06:38:05;3.50;98.30
12164;DHT22;6145;50.192;10.064;2022-12-07T06:40:31;3.50;98.30
12164;DHT22;6145;50.192;10.064;2022-12-07T06:42:58;3.50;98.30
12164;DHT22;6145;50.192;10.064;2022-12-07T06:45:25;3.50;98.40
12164;DHT22;6145;50.192;10.064;2022-12-07T06:47:52;3.50;98.40
12164;DHT22;6145;50.192;10.064;2022-12-07T06:50:20;4.70;98.90
12164;DHT22;6145;50.192;10.064;2022-12-07T06:52:47;3.50;98.30
12164;DHT22;6145;50.192;10.064;2022-12-07T06:55:14;3.50;98.40
12164;DHT22;6145;50.192;10.064;2022-12-07T06:57:41;3.50;98.40
12164;DHT22;6145;50.192;10.064;2022-12-07T07:00:09;4.40;98.80
12164;DHT22;6145;50.192;10.064;2022-12-07T07:02:36;3.50;98.40
12164;DHT22;6145;50.192;10.064;2022-12-07T07:05:03;3.50;98.40
12164;DHT22;6145;50.192;10.064;2022-12-07T07:07:31;3.50;98.40
12164;DHT22;6145;50.192;10.064;2022-12-07T07:09:58;3.60;98.50
12164;DHT22;6145;50.192;10.064;2022-12-07T07:12:25;3.50;98.50
12164;DHT22;6145;50.192;10.064;2022-12-07T07:14:52;3.60;98.60
12164;DHT22;6145;50.192;10.064;2022-12-07T07:17:18;3.60;98.60
12164;DHT22;6145;50.192;10.064;2022-12-07T07:19:45;3.60;98.60
12164;DHT22;6145;50.192;10.064;2022-12-07T07:22:12;3.50;98.50
12164;DHT22;6145;50.192;10.064;2022-12-07T07:24:40;3.60;98.60
12164;DHT22;6145;50.192;10.064;2022-12-07T07:27:07;3.60;98.60
12164;DHT22;6145;50.192;10.064;2022-12-07T07:29:34;3.50;98.60
12164;DHT22;6145;50.192;10.064;2022-12-07T07:32:01;3.60;98.60
12164;DHT22;6145;50.192;10.064;2022-12-07T07:34:28;3.60;98.60
12164;DHT22;6145;50.192;10.064;2022-12-07T07:36:54;3.60;98.70
12164;DHT22;6145;50.192;10.064;2022-12-07T07:39:21;3.90;98.80
12164;DHT22;6145;50.192;10.064;2022-12-07T07:41:50;3.60;98.60
12164;DHT22;6145;50.192;10.064;2022-12-07T07:44:16;3.60;98.60
12164;DHT22;6145;50.192;10.064;2022-12-07T07:46:43;3.60;98.60
12164;DHT22;6145;50.192;10.064;2022-12-07T07:49:10;3.60;98.60
12164;DHT22;6145;50.192;10.064;2022-12-07T07:51:37;4.10;98.90
12164;DHT22;6145;50.192;10.064;2022-12-07T07:54:04;3.60;98.70
12164;DHT22;6145;50.192;10.064;2022-12-07T07:56:31;3.60;98.80
12164;DHT22;6145;50.192;10.064;2022-12-07T07:58:59;3.60;98.80
12164;DHT22;6145;50.192;10.064;2022-12-07T08:01:26;3.60;98.90
12164;DHT22;6145;50.192;10.064;2022-12-07T08:03:53;3.60;99.00
12164;DHT22;6145;50.192;10.064;2022-12-07T08:06:20;3.60;99.00
12164;DHT22;6145;50.192;10.064;2022-12-07T08:08:46;3.60;99.10
12164;DHT22;6145;50.192;10.064;2022-12-07T08:11:13;4.70;99.60
12164;DHT22;6145;50.192;10.064;2022-12-07T08:13:40;3.70;99.20
12164;DHT22;6145;50.192;10.064;2022-12-07T08:16:10;3.70;99.20
12164;DHT22;6145;50.192;10.064;2022-12-07T08:18:37;4.10;99.40
12164;DHT22;6145;50.192;10.064;2022-12-07T08:21:06;3.70;99.30
12164;DHT22;6145;50.192;10.064;2022-12-07T08:23:33;3.70;99.30
12164;DHT22;6145;50.192;10.064;2022-12-07T08:26:01;3.80;99.30
12164;DHT22;6145;50.192;10.064;2022-12-07T08:28:28;3.80;99.30
12164;DHT22;6145;50.192;10.064;2022-12-07T08:30:58;3.80;99.30
12164;DHT22;6145;50.192;10.064;2022-12-07T08:33:27;3.80;99.30
12164;DHT22;6145;50.192;10.064;2022-12-07T08:35:54;3.80;99.40
12164;DHT22;6145;50.192;10.064;2022-12-07T08:38:21;3.80;99.40
12164;DHT22;6145;50.192;10.064;2022-12-07T08:40:53;3.90;99.40
12164;DHT22;6145;50.192;10.064;2022-12-07T08:43:21;3.80;99.40
12164;DHT22;6145;50.192;10.064;2022-12-07T08:45:53;3.80;99.50
12164;DHT22;6145;50.192;10.064;2022-12-07T08:48:24;3.90;99.60
12164;DHT22;6145;50.192;10.064;2022-12-07T08:50:53;3.80;99.50
12164;DHT22;6145;50.192;10.064;2022-12-07T08:53:20;3.90;99.60
12164;DHT22;6145;50.192;10.064;2022-12-07T08:55:48;3.90;99.70
12164;DHT22;6145;50.192;10.064;2022-12-07T08:58:15;4.00;99.80
12164;DHT22;6145;50.192;10.064;2022-12-07T09:00:42;4.00;99.80
12164;DHT22;6145;50.192;10.064;2022-12-07T09:03:09;4.00;99.70
12164;DHT22;6145;50.192;10.064;2022-12-07T09:05:37;4.00;99.60
12164;DHT22;6145;50.192;10.064;2022-12-07T09:08:06;4.30;99.70
12164;DHT22;6145;50.192;10.064;2022-12-07T09:10:33;4.00;99.50
12164;DHT22;6145;50.192;10.064;2022-12-07T09:13:00;4.00;99.60
12164;DHT22;6145;50.192;10.064;2022-12-07T09:15:27;4.10;99.50
12164;DHT22;6145;50.192;10.064;2022-12-07T09:17:54;4.10;99.50
12164;DHT22;6145;50.192;10.064;2022-12-07T09:20:21;4.10;99.40
12164;DHT22;6145;50.192;10.064;2022-12-07T09:22:48;4.10;99.30
12164;DHT22;6145;50.192;10.064;2022-12-07T09:25:17;4.10;99.30
12164;DHT22;6145;50.192;10.064;2022-12-07T09:27:43;4.20;99.40
12164;DHT22;6145;50.192;10.064;2022-12-07T09:30:10;4.20;99.40
12164;DHT22;6145;50.192;10.064;2022-12-07T09:32:37;4.20;99.30
12164;DHT22;6145;50.192;10.064;2022-12-07T09:35:05;4.30;99.30
12164;DHT22;6145;50.192;10.064;2022-12-07T09:37:32;4.30;99.30
12164;DHT22;6145;50.192;10.064;2022-12-07T09:40:02;4.40;99.40
12164;DHT22;6145;50.192;10.064;2022-12-07T09:42:36;5.20;99.80
12164;DHT22;6145;50.192;10.064;2022-12-07T09:45:05;4.50;99.30
12164;DHT22;6145;50.192;10.064;2022-12-07T09:47:33;4.50;99.40
12164;DHT22;6145;50.192;10.064;2022-12-07T09:50:04;4.60;99.20
12164;DHT22;6145;50.192;10.064;2022-12-07T09:52:32;4.70;99.10
12164;DHT22;6145;50.192;10.064;2022-12-07T09:54:59;4.70;99.00
12164;DHT22;6145;50.192;10.064;2022-12-07T09:57:30;4.70;98.30
12164;DHT22;6145;50.192;10.064;2022-12-07T10:00:03;4.70;98.30
12164;DHT22;6145;50.192;10.064;2022-12-07T10:02:35;4.70;98.30
12164;DHT22;6145;50.192;10.064;2022-12-07T10:05:05;6.30;98.70
12164;DHT22;6145;50.192;10.064;2022-12-07T10:07:32;4.80;97.80
12164;DHT22;6145;50.192;10.064;2022-12-07T10:10:00;4.80;97.70
12164;DHT22;6145;50.192;10.064;2022-12-07T10:12:29;4.90;97.80
12164;DHT22;6145;50.192;10.064;2022-12-07T10:15:00;4.90;97.80
12164;DHT22;6145;50.192;10.064;2022-12-07T10:17:47;5.90;98.30
12164;DHT22;6145;50.192;10.064;2022-12-07T10:20:25;5.00;97.70
12164;DHT22;6145;50.192;10.064;2022-12-07T10:23:00;5.00;97.50
12164;DHT22;6145;50.192;10.064;2022-12-07T10:25:30;5.00;97.60
12164;DHT22;6145;50.192;10.064;2022-12-07T10:28:12;5.00;97.40
12164;DHT22;6145;50.192;10.064;2022-12-07T10:30:54;5.00;97.30
12164;DHT22;6145;50.192;10.064;2022-12-07T10:33:31;5.00;97.20
12164;DHT22;6145;50.192;10.064;2022-12-07T10:36:00;5.00;97.00
12164;DHT22;6145;50.192;10.064;2022-12-07T10:38:28;5.10;97.00
12164;DHT22;6145;50.192;10.064;2022-12-07T10:41:04;5.70;97.30
12164;DHT22;6145;50.192;10.064;2022-12-07T10:43:33;5.10;97.10
12164;DHT22;6145;50.192;10.064;2022-12-07T10:46:19;5.10;96.90
12164;DHT22;6145;50.192;10.064;2022-12-07T10:48:54;5.10;96.70
12164;DHT22;6145;50.192;10.064;2022-12-07T10:51:27;5.10;96.80
12164;DHT22;6145;50.192;10.064;2022-12-07T10:54:08;5.20;96.90
12164;DHT22;6145;50.192;10.064;2022-12-07T10:57:04;6.30;97.20
12164;DHT22;6145;50.192;10.064;2022-12-07T10:59:53;5.20;96.80
12164;DHT22;6145;50.192;10.064;2022-12-07T11:02:36;5.20;96.80
12164;DHT22;6145;50.192;10.064;2022-12-07T11:05:14;5.40;97.00
12164;DHT22;6145;50.192;10.064;2022-12-07T11:07:50;5.80;97.10
12164;DHT22;6145;50.192;10.064;2022-12-07T11:10:24;5.30;96.80
12164;DHT22;6145;50.192;10.064;2022-12-07T11:13:01;5.60;97.10
12164;DHT22;6145;50.192;10.064;2022-12-07T11:15:49;5.30;96.50
12164;DHT22;6145;50.192;10.064;2022-12-07T11:18:25;6.20;96.80
12164;DHT22;6145;50.192;10.064;2022-12-07T11:20:59;6.50;96.90
12164;DHT22;6145;50.192;10.064;2022-12-07T11:23:38;5.90;96.70
12164;DHT22;6145;50.192;10.064;2022-12-07T11:26:12;5.30;96.80
12164;DHT22;6145;50.192;10.064;2022-12-07T11:28:54;5.70;96.80
12164;DHT22;6145;50.192;10.064;2022-12-07T11:31:31;5.80;96.70
12164;DHT22;6145;50.192;10.064;2022-12-07T11:34:06;6.00;96.80
12164;DHT22;6145;50.192;10.064;2022-12-07T11:36:38;6.70;97.00
12164;DHT22;6145;50.192;10.064;2022-12-07T11:39:15;5.60;96.50
12164;DHT22;6145;50.192;10.064;2022-12-07T11:41:48;5.60;96.20
12164;DHT22;6145;50.192;10.064;2022-12-07T11:44:26;7.00;96.90
12164;DHT22;6145;50.192;10.064;2022-12-07T11:47:04;5.70;96.40
12164;DHT22;6145;50.192;10.064;2022-12-07T11:49:42;5.70;96.30
12164;DHT22;6145;50.192;10.064;2022-12-07T11:52:18;5.80;96.30
12164;DHT22;6145;50.192;10.064;2022-12-07T11:54:47;5.80;95.60
12164;DHT22;6145;50.192;10.064;2022-12-07T11:57:19;5.80;95.90
12164;DHT22;6145;50.192;10.064;2022-12-07T11:59:51;5.80;95.30
12164;DHT22;6145;50.192;10.064;2022-12-07T12:02:23;5.80;95.30
12164;DHT22;6145;50.192;10.064;2022-12-07T12:04:55;7.10;95.60
12164;DHT22;6145;50.192;10.064;2022-12-07T12:07:27;5.90;95.40
12164;DHT22;6145;50.192;10.064;2022-12-07T12:09:56;5.80;95.00
12164;DHT22;6145;50.192;10.064;2022-12-07T12:12:48;5.80;94.70
12164;DHT22;6145;50.192;10.064;2022-12-07T12:15:29;5.80;94.90
12164;DHT22;6145;50.192;10.064;2022-12-07T12:18:32;5.80;94.60
12164;DHT22;6145;50.192;10.064;2022-12-07T12:21:07;5.80;94.60
12164;DHT22;6145;50.192;10.064;2022-12-07T12:23:40;5.70;94.80
12164;DHT22;6145;50.192;10.064;2022-12-07T12:26:15;5.80;94.90
12164;DHT22;6145;50.192;10.064;2022-12-07T12:28:52;5.80;94.70
12164;DHT22;6145;50.192;10.064;2022-12-07T12:31:35;7.40;95.50
12164;DHT22;6145;50.192;10.064;2022-12-07T12:34:30;5.80;94.90
12164;DHT22;6145;50.192;10.064;2022-12-07T12:36:58;5.80;94.50
12164;DHT22;6145;50.192;10.064;2022-12-07T12:39:25;5.80;94.50
12164;DHT22;6145;50.192;10.064;2022-12-07T12:41:59;5.80;94.00
12164;DHT22;6145;50.192;10.064;2022-12-07T12:45:03;7.20;94.70
12164;DHT22;6145;50.192;10.064;2022-12-07T12:47:52;6.10;94.40
12164;DHT22;6145;50.192;10.064;2022-12-07T12:50:26;5.80;94.50
12164;DHT22;6145;50.192;10.064;2022-12-07T12:53:02;5.80;94.00
12164;DHT22;6145;50.192;10.064;2022-12-07T12:58:39;5.80;93.90
12164;DHT22;6145;50.192;10.064;2022-12-07T13:04:38;5.90;93.60
12164;DHT22;6145;50.192;10.064;2022-12-07T13:10:43;5.90;93.80
12164;DHT22;6145;50.192;10.064;2022-12-07T13:13:32;5.90;93.30
12164;DHT22;6145;50.192;10.064;2022-12-07T13:19:53;5.90;92.60
12164;DHT22;6145;50.192;10.064;2022-12-07T13:22:49;5.90;92.90
12164;DHT22;6145;50.192;10.064;2022-12-07T13:25:41;5.90;92.60
12164;DHT22;6145;50.192;10.064;2022-12-07T13:28:15;7.00;93.50
12164;DHT22;6145;50.192;10.064;2022-12-07T13:30:47;6.00;92.70
12164;DHT22;6145;50.192;10.064;2022-12-07T13:33:17;6.00;92.00
12164;DHT22;6145;50.192;10.064;2022-12-07T13:35:45;5.90;92.10
12164;DHT22;6145;50.192;10.064;2022-12-07T13:38:29;5.90;92.00
12164;DHT22;6145;50.192;10.064;2022-12-07T13:41:13;5.90;92.50
12164;DHT22;6145;50.192;10.064;2022-12-07T13:43:45;5.90;92.80
12164;DHT22;6145;50.192;10.064;2022-12-07T13:46:12;6.40;92.80
12164;DHT22;6145;50.192;10.064;2022-12-07T13:48:45;5.90;92.50
12164;DHT22;6145;50.192;10.064;2022-12-07T13:51:18;5.90;92.70
12164;DHT22;6145;50.192;10.064;2022-12-07T13:53:52;6.90;92.50
12164;DHT22;6145;50.192;10.064;2022-12-07T13:56:22;5.80;92.40
12164;DHT22;6145;50.192;10.064;2022-12-07T13:58:52;6.80;93.00
12164;DHT22;6145;50.192;10.064;2022-12-07T14:01:19;7.10;93.30
12164;DHT22;6145;50.192;10.064;2022-12-07T14:03:46;5.80;92.60
12164;DHT22;6145;50.192;10.064;2022-12-07T14:06:23;6.20;92.70
12164;DHT22;6145;50.192;10.064;2022-12-07T14:09:18;5.80;92.60
12164;DHT22;6145;50.192;10.064;2022-12-07T14:11:45;5.70;92.40
12164;DHT22;6145;50.192;10.064;2022-12-07T14:14:18;5.70;92.30
12164;DHT22;6145;50.192;10.064;2022-12-07T14:16:55;6.10;92.90
12164;DHT22;6145;50.192;10.064;2022-12-07T14:19:41;5.70;92.70
12164;DHT22;6145;50.192;10.064;2022-12-07T14:22:19;5.60;93.00
12164;DHT22;6145;50.192;10.064;2022-12-07T14:24:48;6.00;93.20
12164;DHT22;6145;50.192;10.064;2022-12-07T14:27:18;5.60;92.40
12164;DHT22;6145;50.192;10.064;2022-12-07T14:29:45;5.60;92.60
12164;DHT22;6145;50.192;10.064;2022-12-07T14:32:23;5.50;92.50
12164;DHT22;6145;50.192;10.064;2022-12-07T14:34:58;5.50;92.90
12164;DHT22;6145;50.192;10.064;2022-12-07T14:37:26;5.50;92.80
12164;DHT22;6145;50.192;10.064;2022-12-07T14:39:55;5.50;92.80
12164;DHT22;6145;50.192;10.064;2022-12-07T14:42:24;5.50;92.80
12164;DHT22;6145;50.192;10.064;2022-12-07T14:44:51;5.40;92.80
12164;DHT22;6145;50.192;10.064;2022-12-07T14:47:18;5.40;92.80
12164;DHT22;6145;50.192;10.064;2022-12-07T14:49:45;6.20;93.30
12164;DHT22;6145;50.192;10.064;2022-12-07T14:52:15;7.10;93.90
12164;DHT22;6145;50.192;10.064;2022-12-07T14:54:43;5.30;93.00
12164;DHT22;6145;50.192;10.064;2022-12-07T14:57:11;5.30;93.20
12164;DHT22;6145;50.192;10.064;2022-12-07T14:59:39;6.60;93.90
12164;DHT22;6145;50.192;10.064;2022-12-07T15:02:06;6.60;93.90
12164;DHT22;6145;50.192;10.064;2022-12-07T15:04:36;5.20;93.30
12164;DHT22;6145;50.192;10.064;2022-12-07T15:07:05;5.20;93.40
12164;DHT22;6145;50.192;10.064;2022-12-07T15:09:32;5.20;93.70
12164;DHT22;6145;50.192;10.064;2022-12-07T15:11:58;5.10;93.50
12164;DHT22;6145;50.192;10.064;2022-12-07T15:14:27;5.10;93.40
12164;DHT22;6145;50.192;10.064;2022-12-07T15:16:53;5.50;93.80
12164;DHT22;6145;50.192;10.064;2022-12-07T15:19:22;5.10;93.70
12164;DHT22;6145;50.192;10.064;2022-12-07T15:21:51;5.10;93.80
12164;DHT22;6145;50.192;10.064;2022-12-07T15:24:19;5.70;94.30
12164;DHT22;6145;50.192;10.064;2022-12-07T15:26:46;5.30;94.20
12164;DHT22;6145;50.192;10.064;2022-12-07T15:29:13;5.00;94.20
12164;DHT22;6145;50.192;10.064;2022-12-07T15:31:43;5.00;94.40
12164;DHT22;6145;50.192;10.064;2022-12-07T15:34:11;5.00;94.40
12164;DHT22;6145;50.192;10.064;2022-12-07T15:36:38;5.50;94.70
12164;DHT22;6145;50.192;10.064;2022-12-07T15:39:04;6.10;95.00
12164;DHT22;6145;50.192;10.064;2022-12-07T15:41:31;5.00;94.60
12164;DHT22;6145;50.192;10.064;2022-12-07T15:43:58;5.50;94.80
12164;DHT22;6145;50.192;10.064;2022-12-07T15:46:44;5.00;94.60
12164;DHT22;6145;50.192;10.064;2022-12-07T15:49:14;5.00;94.60
12164;DHT22;6145;50.192;10.064;2022-12-07T15:51:42;5.00;94.70
12164;DHT22;6145;50.192;10.064;2022-12-07T15:54:13;6.40;95.20
12164;DHT22;6145;50.192;10.064;2022-12-07T15:56:41;5.00;94.50
12164;DHT22;6145;50.192;10.064;2022-12-07T15:59:08;4.80;94.60
12164;DHT22;6145;50.192;10.064;2022-12-07T16:01:35;4.80;94.60
12164;DHT22;6145;50.192;10.064;2022-12-07T16:04:04;4.80;94.60
12164;DHT22;6145;50.192;10.064;2022-12-07T16:06:31;5.30;95.00
12164;DHT22;6145;50.192;10.064;2022-12-07T16:08:58;4.70;94.70
12164;DHT22;6145;50.192;10.064;2022-12-07T16:11:25;4.70;94.70
12164;DHT22;6145;50.192;10.064;2022-12-07T16:13:52;4.70;94.80
12164;DHT22;6145;50.192;10.064;2022-12-07T16:16:19;4.70;94.90
12164;DHT22;6145;50.192;10.064;2022-12-07T16:18:48;4.70;94.90
12164;DHT22;6145;50.192;10.064;2022-12-07T16:21:18;4.60;95.10
12164;DHT22;6145;50.192;10.064;2022-12-07T16:23:45;4.60;94.80